Time;durP1;ratioP1;P1;durP2;ratioP2;P2;SDS_P1;SDS_P2;PMS_P1;PMS_P2;Temp;Humidity;BMP_temperature;BMP_pressure;BME280_temperature;BME280_humidity;BME280_pressure;Samples;Min_cycle;Max_cycle;Signal;HPM_P1;HPM_P2
2021/09/21 00:00:29;;;;;;;;;;;;;;;11.94;77.23;97577.00;30001;983;1876;-61
2021/09/21 00:01:00;;;;;;;;;;;;;;;11.94;76.69;97582.44;30001;983;1880;-61
2021/09/21 00:01:31;;;;;;;;;;;;;;;11.94;76.92;97583.25;30001;983;1854;-62
2021/09/21 00:02:02;;;;;;;;;;;;;;;11.94;76.83;97580.53;30001;982;1854;-60
2021/09/21 00:02:33;;;;;;;;;;;;;;;11.95;76.83;97584.06;30001;982;1876;-59
2021/09/21 00:03:04;;;;;;;;;;;;;;;11.95;76.96;97581.34;30001;982;1881;-61
2021/09/21 00:03:36;;;;;;;;;;;;;;;11.95;76.50;97581.34;30001;982;1876;-60
2021/09/21 00:04:07;;;;;;;;;;;;;;;11.95;76.77;97581.34;30001;982;1880;-61
2021/09/21 00:04:38;;;;;;;;;;;;;;;11.96;76.60;97581.06;30001;983;1875;-60
2021/09/21 00:05:09;;;;;;;;;;;;;;;11.98;76.63;97584.31;30001;983;1880;-61
2021/09/21 00:05:40;;;;;;;;;;;;;;;11.96;76.50;97575.63;30001;983;1875;-61
2021/09/21 00:06:11;;;;;;;;;;;;;;;11.97;76.84;97588.12;30001;983;1880;-60
2021/09/21 00:06:43;;;;;;;;;;;;;;;11.98;76.60;97580.78;30001;967;1878;-61
2021/09/21 00:07:15;;;;;;;;;;;;;;;11.98;76.60;97573.44;30001;983;1875;-61
2021/09/21 00:07:46;;;;;;;;;;;;;;;11.98;76.45;97578.88;30001;987;1876;-60
2021/09/21 00:08:17;;;;;;;;;;;;;;;11.99;76.74;97583.22;30001;983;1880;-61
2021/09/21 00:08:48;;;;;;;;;;;;;;;11.99;76.45;97580.50;30001;982;1876;-61
2021/09/21 00:09:19;;;;;;;;;;;;;;;11.99;76.71;97574.25;30001;982;1880;-61
2021/09/21 00:09:50;;;;;;;;;;;;;;;11.99;76.60;97577.78;30001;982;1876;-62
2021/09/21 00:10:22;;;;;;;;;;;;;;;12.02;76.67;97573.69;30001;982;1859;-60
2021/09/21 00:10:54;;;;;;;;;;;;;;;12.02;76.87;97579.13;30001;982;1872;-61
2021/09/21 00:11:25;;;;;;;;;;;;;;;12.02;76.55;97569.06;30001;982;1880;-61
2021/09/21 00:11:56;;;;;;;;;;;;;;;12.01;76.73;97572.88;30001;983;1875;-59
2021/09/21 00:12:27;;;;;;;;;;;;;;;12.01;76.62;97575.59;30001;983;1879;-62
2021/09/21 00:12:59;;;;;;;;;;;;;;;12.00;76.01;97565.81;30001;983;1875;-60
2021/09/21 00:13:30;;;;;;;;;;;;;;;11.98;76.05;97565.28;30001;983;1880;-60
2021/09/21 00:14:02;;;;;;;;;;;;;;;11.98;76.05;97568.00;30001;983;1875;-61
2021/09/21 00:14:32;;;;;;;;;;;;;;;11.96;75.96;97572.09;30001;983;1880;-60
2021/09/21 00:15:04;;;;;;;;;;;;;;;11.94;76.12;97572.38;30001;983;1876;-62
2021/09/21 00:15:35;;;;;;;;;;;;;;;11.92;76.14;97563.69;30001;983;1858;-60
2021/09/21 00:16:07;;;;;;;;;;;;;;;11.92;76.00;97558.25;30001;982;1849;-60
2021/09/21 00:16:37;;;;;;;;;;;;;;;11.92;76.33;97560.16;30001;982;1880;-60
2021/09/21 00:17:08;;;;;;;;;;;;;;;11.92;76.63;97562.87;30001;982;1876;-61
2021/09/21 00:17:39;;;;;;;;;;;;;;;11.91;76.23;97558.53;30001;982;1880;-61
2021/09/21 00:18:10;;;;;;;;;;;;;;;11.88;76.20;97562.63;30001;982;1876;-60
2021/09/21 00:18:41;;;;;;;;;;;;;;;11.88;76.47;97561.81;30001;982;1859;-61
2021/09/21 00:19:12;;;;;;;;;;;;;;;11.88;76.29;97569.97;30001;982;1872;-61
2021/09/21 00:19:43;;;;;;;;;;;;;;;11.88;76.41;97570.78;30001;983;1880;-62
2021/09/21 00:20:15;;;;;;;;;;;;;;;11.88;76.53;97567.25;30001;983;1875;-61
2021/09/21 00:20:46;;;;;;;;;;;;;;;11.86;76.28;97564.81;30001;983;1746;-62
2021/09/21 00:21:16;;;;;;;;;;;;;;;11.85;76.09;97574.06;30001;960;1749;-61
2021/09/21 00:21:47;;;;;;;;;;;;;;;11.85;75.93;97578.69;30001;983;1880;-62
2021/09/21 00:22:18;;;;;;;;;;;;;;;11.84;76.30;97580.59;30001;983;1876;-60
2021/09/21 00:22:49;;;;;;;;;;;;;;;11.85;76.18;97579.50;30001;983;1880;-60
2021/09/21 00:23:20;;;;;;;;;;;;;;;11.84;76.48;97577.87;30001;983;1876;-61
2021/09/21 00:23:50;;;;;;;;;;;;;;;11.84;76.28;97583.31;30001;982;1880;-60
2021/09/21 00:24:21;;;;;;;;;;;;;;;11.85;76.32;97584.13;30001;982;1876;-60
2021/09/21 00:24:52;;;;;;;;;;;;;;;11.84;76.51;97575.16;30001;982;1881;-61
2021/09/21 00:25:23;;;;;;;;;;;;;;;11.85;76.81;97579.50;30001;982;1876;-60
2021/09/21 00:25:54;;;;;;;;;;;;;;;11.84;76.67;97577.87;30001;982;1880;-61
2021/09/21 00:26:25;;;;;;;;;;;;;;;11.85;76.74;97578.69;30001;982;1854;-61
2021/09/21 00:26:56;;;;;;;;;;;;;;;11.84;77.00;97577.87;30001;983;1875;-61
2021/09/21 00:27:27;;;;;;;;;;;;;;;11.83;77.22;97573.53;30001;983;1875;-61
2021/09/21 00:27:57;;;;;;;;;;;;;;;11.83;77.01;97581.69;30001;964;1807;-62
2021/09/21 00:28:28;;;;;;;;;;;;;;;11.83;76.91;97581.69;30001;983;1853;-61
2021/09/21 00:29:00;;;;;;;;;;;;;;;11.84;77.03;97571.63;30001;983;1875;-61
2021/09/21 00:29:31;;;;;;;;;;;;;;;11.82;77.32;97574.63;30001;983;1876;-61
2021/09/21 00:30:03;;;;;;;;;;;;;;;11.82;77.12;97571.91;30001;983;1858;-60
2021/09/21 00:30:34;;;;;;;;;;;;;;;11.82;77.30;97577.34;30001;983;1871;-61
2021/09/21 00:31:09;;;;;;;;;;;;;;;11.81;76.54;97577.63;30001;982;1880;-62
2021/09/21 00:31:41;;;;;;;;;;;;;;;11.80;76.72;97576.84;30001;984;1867;-60
2021/09/21 00:32:24;;;;;;;;;;;;;;;11.80;76.87;97579.53;30001;982;1880;-60
2021/09/21 00:33:02;;;;;;;;;;;;;;;11.80;76.85;97576.00;30001;982;1876;-61
2021/09/21 00:33:47;;;;;;;;;;;;;;;11.81;77.04;97578.44;30001;982;1859;-61
2021/09/21 00:34:18;;;;;;;;;;;;;;;11.80;76.92;97571.41;30001;982;1871;-60
2021/09/21 00:34:49;;;;;;;;;;;;;;;11.81;76.85;97575.72;30001;983;1880;-61
2021/09/21 00:35:20;;;;;;;;;;;;;;;11.82;77.11;97580.06;30001;983;1853;-60
2021/09/21 00:35:52;;;;;;;;;;;;;;;11.82;77.01;97574.63;30001;983;1875;-61
2021/09/21 00:36:23;;;;;;;;;;;;;;;11.81;77.42;97570.28;30001;983;1876;-61
2021/09/21 00:36:54;;;;;;;;;;;;;;;11.81;77.05;97573.00;30001;983;1880;-61
2021/09/21 00:37:24;;;;;;;;;;;;;;;11.81;77.34;97583.88;30001;983;1876;-62
2021/09/21 00:37:55;;;;;;;;;;;;;;;11.81;77.11;97581.16;30001;983;1880;-61
2021/09/21 00:38:26;;;;;;;;;;;;;;;11.79;77.29;97580.62;30001;983;1876;-60
2021/09/21 00:38:57;;;;;;;;;;;;;;;11.79;77.36;97580.62;30001;982;1880;-60
2021/09/21 00:39:27;;;;;;;;;;;;;;;11.78;77.24;97587.22;30001;982;1876;-60
2021/09/21 00:39:58;;;;;;;;;;;;;;;11.79;77.38;97586.06;30001;982;1880;-61
2021/09/21 00:40:29;;;;;;;;;;;;;;;11.79;77.18;97575.22;30001;982;1854;-61
2021/09/21 00:41:00;;;;;;;;;;;;;;;11.79;77.49;97586.06;30001;982;1876;-61
2021/09/21 00:41:32;;;;;;;;;;;;;;;11.80;77.24;97589.62;30001;983;1875;-61
2021/09/21 00:42:03;;;;;;;;;;;;;;;11.79;77.42;97583.38;30001;983;1880;-60
2021/09/21 00:42:34;;;;;;;;;;;;;;;11.80;77.50;97582.25;30001;983;1875;-62
2021/09/21 00:43:05;;;;;;;;;;;;;;;11.81;77.38;97583.88;30001;983;1858;-61
2021/09/21 00:43:36;;;;;;;;;;;;;;;11.81;77.84;97586.63;30001;983;1871;-61
2021/09/21 00:44:07;;;;;;;;;;;;;;;11.82;77.53;97585.50;30001;983;1880;-60
2021/09/21 00:44:38;;;;;;;;;;;;;;;11.81;77.49;97588.53;30001;983;1876;-60
2021/09/21 00:45:15;;;;;;;;;;;;;;;11.82;77.54;97590.94;30001;983;1880;-62
2021/09/21 00:45:47;;;;;;;;;;;;;;;11.84;77.38;97593.37;30001;983;1876;-61
2021/09/21 00:46:18;;;;;;;;;;;;;;;11.83;77.59;97589.03;30001;982;1880;-60
2021/09/21 00:46:49;;;;;;;;;;;;;;;11.82;77.63;97585.50;30001;982;1854;-61
2021/09/21 00:47:20;;;;;;;;;;;;;;;11.81;77.57;97592.06;30001;982;1876;-60
2021/09/21 00:47:52;;;;;;;;;;;;;;;11.84;77.69;97586.03;30001;982;1876;-61
2021/09/21 00:48:22;;;;;;;;;;;;;;;11.83;77.49;97587.13;30001;982;1880;-61
2021/09/21 00:48:53;;;;;;;;;;;;;;;11.82;77.65;97590.94;30001;983;1875;-60
2021/09/21 00:49:24;;;;;;;;;;;;;;;11.83;77.82;97595.28;30001;983;1880;-60
2021/09/21 00:49:55;;;;;;;;;;;;;;;11.84;77.71;97594.19;30001;983;1875;-59
2021/09/21 00:50:27;;;;;;;;;;;;;;;11.84;77.74;97596.91;30001;983;1858;-59
2021/09/21 00:50:58;;;;;;;;;;;;;;;11.85;77.36;97595.00;30001;983;1871;-60
2021/09/21 00:51:30;;;;;;;;;;;;;;;11.84;77.13;97591.47;30001;983;1880;-60
2021/09/21 00:52:01;;;;;;;;;;;;;;;11.84;77.16;97593.37;30001;983;1876;-60
2021/09/21 00:52:32;;;;;;;;;;;;;;;11.84;77.47;97594.19;30001;983;1880;-61
2021/09/21 00:53:03;;;;;;;;;;;;;;;11.82;77.36;97590.94;30001;983;1876;-61
2021/09/21 00:53:36;;;;;;;;;;;;;;;11.81;77.68;97592.06;30001;983;1880;-61
2021/09/21 00:54:07;;;;;;;;;;;;;;;11.81;77.80;97600.22;30001;982;1876;-61
2021/09/21 00:54:38;;;;;;;;;;;;;;;11.83;77.66;97594.47;30001;982;1880;-60
2021/09/21 00:55:09;;;;;;;;;;;;;;;11.82;77.99;97595.56;30001;982;1876;-60
2021/09/21 00:55:41;;;;;;;;;;;;;;;11.81;78.25;97599.38;30001;982;1859;-62
2021/09/21 00:56:12;;;;;;;;;;;;;;;11.81;78.09;97593.97;30001;982;1872;-60
2021/09/21 00:56:42;;;;;;;;;;;;;;;11.82;77.89;97596.41;30001;983;1880;-60
2021/09/21 00:57:14;;;;;;;;;;;;;;;11.86;77.95;97592.00;30001;983;1853;-60
2021/09/21 00:57:45;;;;;;;;;;;;;;;11.87;77.98;97599.06;30001;983;1875;-60
2021/09/21 00:58:16;;;;;;;;;;;;;;;11.87;77.75;97593.63;30001;983;1875;-60
2021/09/21 00:58:47;;;;;;;;;;;;;;;11.89;77.58;97591.44;30001;983;1880;-61
2021/09/21 00:59:18;;;;;;;;;;;;;;;11.87;77.44;97588.19;30001;983;1876;-60
2021/09/21 00:59:48;;;;;;;;;;;;;;;11.87;76.88;97600.97;30001;983;1880;-61
2021/09/21 01:00:20;;;;;;;;;;;;;;;11.85;76.94;97601.25;30001;983;1876;-61
2021/09/21 01:00:51;;;;;;;;;;;;;;;11.84;77.20;97588.75;30001;983;1880;-61
2021/09/21 01:01:23;;;;;;;;;;;;;;;11.83;76.96;97592.56;30001;982;1780;-61
2021/09/21 01:01:54;;;;;;;;;;;;;;;11.82;77.09;97590.16;30001;982;1880;-62
2021/09/21 01:02:25;;;;;;;;;;;;;;;11.80;77.39;97587.69;30001;982;1854;-61
2021/09/21 01:02:56;;;;;;;;;;;;;;;11.80;77.78;97593.16;30001;982;1876;-61
2021/09/21 01:03:27;;;;;;;;;;;;;;;11.80;77.59;97593.16;30001;982;1876;-61
2021/09/21 01:03:59;;;;;;;;;;;;;;;11.80;77.82;97582.25;30001;983;1880;-61
2021/09/21 01:04:30;;;;;;;;;;;;;;;11.81;77.69;97592.06;30001;983;1875;-60
2021/09/21 01:05:01;;;;;;;;;;;;;;;11.83;77.72;97586.31;30001;983;1880;-60
2021/09/21 01:05:32;;;;;;;;;;;;;;;11.83;77.72;97598.03;30001;983;1875;-62
2021/09/21 01:06:04;;;;;;;;;;;;;;;11.82;77.44;97585.50;30001;983;1880;-60
2021/09/21 01:06:34;;;;;;;;;;;;;;;11.83;77.15;97597.19;30001;983;1876;-60
2021/09/21 01:07:05;;;;;;;;;;;;;;;11.83;77.42;97587.13;30001;983;1880;-62
2021/09/21 01:07:37;;;;;;;;;;;;;;;11.82;77.16;97590.94;30001;983;1854;-61
2021/09/21 01:08:08;;;;;;;;;;;;;;;11.81;77.29;97589.31;30001;982;1876;-60
2021/09/21 01:08:40;;;;;;;;;;;;;;;11.81;77.63;97589.31;30001;982;1876;-60
2021/09/21 01:09:21;;;;;;;;;;;;;;;11.82;77.43;97587.41;30001;982;1880;-60
2021/09/21 01:10:03;;;;;;;;;;;;;;;11.83;77.58;97592.56;30001;982;1876;-60
2021/09/21 01:10:33;;;;;;;;;;;;;;;11.83;77.42;97592.56;30001;982;1880;-61
2021/09/21 01:11:04;;;;;;;;;;;;;;;11.83;77.45;97587.13;30001;982;1854;-61
2021/09/21 01:11:35;;;;;;;;;;;;;;;11.81;77.38;97592.06;30001;983;1875;-61
2021/09/21 01:12:06;;;;;;;;;;;;;;;11.79;77.63;97585.28;30001;983;1875;-60
2021/09/21 01:12:38;;;;;;;;;;;;;;;11.79;77.79;97583.38;30001;983;1880;-61
2021/09/21 01:13:08;;;;;;;;;;;;;;;11.81;77.74;97583.88;30001;983;1875;-60
2021/09/21 01:13:40;;;;;;;;;;;;;;;11.81;77.47;97589.31;30001;983;1880;-61
2021/09/21 01:14:10;;;;;;;;;;;;;;;11.81;77.15;97592.06;30001;983;1876;-61
2021/09/21 01:14:41;;;;;;;;;;;;;;;11.80;77.53;97587.69;30001;983;1880;-60
2021/09/21 01:15:13;;;;;;;;;;;;;;;11.78;77.14;97589.94;30001;983;1854;-60
2021/09/21 01:15:44;;;;;;;;;;;;;;;11.78;77.46;97592.66;30001;982;1876;-62
2021/09/21 01:16:15;;;;;;;;;;;;;;;11.77;77.44;97588.31;30001;982;1876;-64
2021/09/21 01:16:46;;;;;;;;;;;;;;;11.77;77.57;97590.22;30001;982;1880;-61
2021/09/21 01:17:17;;;;;;;;;;;;;;;11.75;77.47;97583.13;30001;982;1876;-61
2021/09/21 01:17:48;;;;;;;;;;;;;;;11.77;77.40;97588.31;30001;982;1880;-61
2021/09/21 01:18:19;;;;;;;;;;;;;;;11.76;78.25;97589.38;30001;982;1876;-60
2021/09/21 01:18:51;;;;;;;;;;;;;;;11.73;78.13;97582.59;30001;982;1880;-60
2021/09/21 01:19:22;;;;;;;;;;;;;;;11.72;78.12;97586.41;30001;983;1875;-61
2021/09/21 01:19:52;;;;;;;;;;;;;;;11.73;78.03;97587.22;30001;983;1880;-61
2021/09/21 01:20:24;;;;;;;;;;;;;;;11.72;78.24;97586.41;30001;983;1853;-60
2021/09/21 01:21:04;;;;;;;;;;;;;;;11.69;78.28;97586.16;30001;983;1876;-61
2021/09/21 01:21:35;;;;;;;;;;;;;;;11.67;78.52;97589.16;30001;983;1876;-61
2021/09/21 01:22:07;;;;;;;;;;;;;;;11.66;78.56;97590.25;30001;983;1880;-60
2021/09/21 01:22:39;;;;;;;;;;;;;;;11.66;78.17;97598.41;30001;983;1876;-61
2021/09/21 01:23:11;;;;;;;;;;;;;;;11.64;78.15;97588.91;30001;982;1858;-61
2021/09/21 01:23:44;;;;;;;;;;;;;;;11.62;78.20;97593.81;30001;982;1849;-59
2021/09/21 01:24:16;;;;;;;;;;;;;;;11.63;78.11;97590.00;30001;982;1858;-61
2021/09/21 01:24:48;;;;;;;;;;;;;;;11.63;78.34;97592.72;30001;982;1872;-61
2021/09/21 01:25:19;;;;;;;;;;;;;;;11.64;78.05;97581.56;30001;982;1880;-59
2021/09/21 01:25:50;;;;;;;;;;;;;;;11.65;78.30;97585.09;30001;982;1876;-61
2021/09/21 01:26:22;;;;;;;;;;;;;;;11.66;78.24;97581.28;30001;982;1881;-59
2021/09/21 01:26:53;;;;;;;;;;;;;;;11.65;78.31;97585.91;30001;983;1875;-60
2021/09/21 01:27:24;;;;;;;;;;;;;;;11.67;78.51;97583.72;30001;983;1858;-61
2021/09/21 01:27:55;;;;;;;;;;;;;;;11.67;78.32;97589.16;30001;983;1871;-59
2021/09/21 01:28:25;;;;;;;;;;;;;;;11.68;78.17;97587.25;30001;983;1880;-61
2021/09/21 01:28:58;;;;;;;;;;;;;;;11.67;77.99;97594.59;30001;983;1853;-60
2021/09/21 01:29:29;;;;;;;;;;;;;;;11.66;78.20;97589.44;30001;983;1876;-62
2021/09/21 01:30:00;;;;;;;;;;;;;;;11.64;78.34;97586.19;30001;983;1876;-62
2021/09/21 01:30:31;;;;;;;;;;;;;;;11.64;78.56;97591.63;30001;983;1880;-61
2021/09/21 01:31:01;;;;;;;;;;;;;;;11.62;78.48;97588.38;30001;982;1876;-61
2021/09/21 01:31:32;;;;;;;;;;;;;;;11.63;78.72;97592.72;30001;982;1881;-62
2021/09/21 01:32:04;;;;;;;;;;;;;;;11.62;78.77;97588.38;30001;982;1876;-61
2021/09/21 01:32:35;;;;;;;;;;;;;;;11.61;78.71;97590.28;30001;982;1859;-60
2021/09/21 01:33:05;;;;;;;;;;;;;;;11.63;78.71;97592.72;30001;982;1872;-61
2021/09/21 01:33:36;;;;;;;;;;;;;;;11.63;78.36;97587.28;30001;983;1880;-61
2021/09/21 01:34:08;;;;;;;;;;;;;;;11.63;79.04;97587.28;30001;983;1875;-61
2021/09/21 01:34:39;;;;;;;;;;;;;;;11.64;78.75;97584.28;30001;983;1880;-60
2021/09/21 01:35:15;;;;;;;;;;;;;;;11.65;78.96;97590.53;30001;983;1875;-62
2021/09/21 01:35:46;;;;;;;;;;;;;;;11.63;79.18;97587.28;30001;983;1880;-61
2021/09/21 01:36:19;;;;;;;;;;;;;;;11.63;79.14;97587.28;30001;983;1875;-62
2021/09/21 01:36:50;;;;;;;;;;;;;;;11.64;79.05;97588.91;30001;983;1858;-61
2021/09/21 01:37:22;;;;;;;;;;;;;;;11.64;78.99;97591.63;30001;983;1871;-60
2021/09/21 01:37:53;;;;;;;;;;;;;;;11.63;78.84;97596.25;30001;983;1880;-61
2021/09/21 01:38:24;;;;;;;;;;;;;;;11.63;78.57;97592.72;30001;982;1876;-62
2021/09/21 01:38:55;;;;;;;;;;;;;;;11.62;78.68;97591.91;30001;982;1880;-60
2021/09/21 01:39:26;;;;;;;;;;;;;;;11.62;78.27;97591.91;30001;982;1876;-61
2021/09/21 01:39:57;;;;;;;;;;;;;;;11.61;78.53;97593.00;30001;982;1859;-61
2021/09/21 01:40:28;;;;;;;;;;;;;;;11.62;78.68;97591.09;30001;982;1872;-61
2021/09/21 01:40:59;;;;;;;;;;;;;;;11.62;78.69;97593.81;30001;983;1858;-61
2021/09/21 01:41:30;;;;;;;;;;;;;;;11.63;78.71;97590.00;30001;983;1871;-59
2021/09/21 01:42:01;;;;;;;;;;;;;;;11.64;78.53;97591.63;30001;983;1880;-60
2021/09/21 01:42:32;;;;;;;;;;;;;;;11.64;78.32;97589.72;30001;983;1875;-60
2021/09/21 01:43:05;;;;;;;;;;;;;;;11.66;78.39;97592.16;30001;983;1880;-61
2021/09/21 01:43:36;;;;;;;;;;;;;;;11.66;78.59;97594.88;30001;983;1876;-60
2021/09/21 01:44:08;;;;;;;;;;;;;;;11.67;78.17;97596.50;30001;983;1858;-60
2021/09/21 01:44:38;;;;;;;;;;;;;;;11.66;78.39;97590.25;30001;983;1871;-59
2021/09/21 01:45:10;;;;;;;;;;;;;;;11.66;78.37;97598.41;30001;983;1880;-61
2021/09/21 01:45:41;;;;;;;;;;;;;;;11.66;78.25;97598.41;30001;983;1876;-60
2021/09/21 01:46:14;;;;;;;;;;;;;;;11.66;78.50;97597.59;30001;982;1880;-61
2021/09/21 01:46:46;;;;;;;;;;;;;;;11.66;78.48;97598.41;30001;982;1876;-59
2021/09/21 01:47:20;;;;;;;;;;;;;;;11.67;78.49;97596.50;30001;982;1880;-60
2021/09/21 01:47:51;;;;;;;;;;;;;;;11.67;78.13;97594.59;30001;982;1876;-60
2021/09/21 01:48:21;;;;;;;;;;;;;;;11.68;78.50;97598.13;30001;983;1880;-60
2021/09/21 01:48:52;;;;;;;;;;;;;;;11.67;78.14;97599.22;30001;983;1875;-60
2021/09/21 01:49:24;;;;;;;;;;;;;;;11.66;78.29;97597.59;30001;983;1858;-59
2021/09/21 01:50:20;;;;;;;;;;;;;;;11.65;78.37;97595.97;30001;983;1871;-60
2021/09/21 01:51:09;;;;;;;;;;;;;;;11.66;78.31;97597.59;30001;983;1880;-59
2021/09/21 01:51:43;;;;;;;;;;;;;;;11.69;77.98;97599.75;30001;983;1876;-59
2021/09/21 01:52:37;;;;;;;;;;;;;;;11.73;77.66;97596.19;30001;983;1880;-61
2021/09/21 01:53:27;;;;;;;;;;;;;;;11.70;77.25;97598.66;30001;983;1854;-62
2021/09/21 01:54:22;;;;;;;;;;;;;;;11.67;77.42;97605.47;30001;982;1885;-60
2021/09/21 01:55:09;;;;;;;;;;;;;;;11.67;77.54;97600.03;30001;982;1858;-60
2021/09/21 01:59:06;;;;;;;;;;;;;;;11.61;79.38;97594.91;30001;983;1884;-61
2021/09/21 01:59:37;;;;;;;;;;;;;;;11.59;79.44;97597.09;30001;983;1880;-61
2021/09/21 02:00:09;;;;;;;;;;;;;;;11.59;79.35;97588.94;30001;983;1862;-61
2021/09/21 02:00:39;;;;;;;;;;;;;;;11.58;78.78;97590.03;30001;983;1876;-60
2021/09/21 02:01:10;;;;;;;;;;;;;;;11.58;78.06;97596.28;30001;982;1885;-60
2021/09/21 02:01:41;;;;;;;;;;;;;;;11.57;78.42;97589.22;30001;982;1880;-60
2021/09/21 02:02:12;;;;;;;;;;;;;;;11.56;78.19;97597.66;30001;982;1885;-62
2021/09/21 02:02:43;;;;;;;;;;;;;;;11.56;78.16;97603.88;30001;982;1880;-61
2021/09/21 02:03:14;;;;;;;;;;;;;;;11.55;78.20;97604.16;30001;982;1885;-61
2021/09/21 02:03:45;;;;;;;;;;;;;;;11.56;78.28;97597.66;30001;983;1880;-62
2021/09/21 02:04:16;;;;;;;;;;;;;;;11.55;78.34;97598.72;30001;983;1884;-61
2021/09/21 02:04:47;;;;;;;;;;;;;;;11.55;78.33;97601.44;30001;983;1880;-59
2021/09/21 02:05:18;;;;;;;;;;;;;;;11.55;78.38;97606.88;30001;983;1862;-60
2021/09/21 02:05:49;;;;;;;;;;;;;;;11.55;78.15;97604.97;30001;983;1875;-60
2021/09/21 02:06:24;;;;;;;;;;;;;;;11.57;78.84;97604.69;30001;983;1884;-60
2021/09/21 02:06:56;;;;;;;;;;;;;;;11.57;78.71;97612.84;30001;983;1880;-60
2021/09/21 02:07:26;;;;;;;;;;;;;;;11.56;78.70;97603.06;30001;983;1862;-60
2021/09/21 02:08:00;;;;;;;;;;;;;;;11.57;78.62;97610.13;30001;982;1876;-60
2021/09/21 02:08:31;;;;;;;;;;;;;;;11.57;78.53;97604.69;30001;982;1885;-60
2021/09/21 02:09:06;;;;;;;;;;;;;;;11.57;78.70;97604.69;30001;982;1880;-61
2021/09/21 02:09:37;;;;;;;;;;;;;;;11.60;78.76;97604.12;30001;982;1885;-61
2021/09/21 02:10:09;;;;;;;;;;;;;;;11.60;78.71;97606.84;30001;982;1880;-62
2021/09/21 02:10:39;;;;;;;;;;;;;;;11.59;78.69;97602.50;30001;982;1885;-61
2021/09/21 02:11:10;;;;;;;;;;;;;;;11.58;78.78;97601.69;30001;983;1880;-62
2021/09/21 02:11:45;;;;;;;;;;;;;;;11.58;79.11;97595.47;30001;983;1884;-61
2021/09/21 02:12:15;;;;;;;;;;;;;;;11.57;79.14;97593.84;30001;983;1880;-60
2021/09/21 02:12:47;;;;;;;;;;;;;;;11.57;79.05;97605.50;30001;970;1885;-60
2021/09/21 02:13:18;;;;;;;;;;;;;;;11.59;79.38;97602.50;30001;987;1875;-61
2021/09/21 02:13:55;;;;;;;;;;;;;;;11.59;79.11;97602.50;30001;983;1884;-60
2021/09/21 02:14:27;;;;;;;;;;;;;;;11.59;79.42;97592.47;30001;983;1880;-61
2021/09/21 02:15:00;;;;;;;;;;;;;;;11.61;79.08;97594.91;30001;983;1884;-59
2021/09/21 02:15:31;;;;;;;;;;;;;;;11.62;79.34;97607.37;30001;982;1880;-61
2021/09/21 02:16:03;;;;;;;;;;;;;;;11.63;79.55;97600.87;30001;982;1885;-61
2021/09/21 02:16:34;;;;;;;;;;;;;;;11.64;79.45;97599.78;30001;982;1880;-61
2021/09/21 02:17:05;;;;;;;;;;;;;;;11.64;79.27;97605.22;30001;982;1885;-61
2021/09/21 02:17:36;;;;;;;;;;;;;;;11.62;79.48;97601.97;30001;982;1880;-61
2021/09/21 02:18:07;;;;;;;;;;;;;;;11.61;79.13;97595.72;30001;982;1863;-61
2021/09/21 02:18:38;;;;;;;;;;;;;;;11.61;79.23;97597.63;30001;983;1875;-63
2021/09/21 02:19:09;;;;;;;;;;;;;;;11.61;79.23;97594.91;30001;983;1884;-62
2021/09/21 02:19:43;;;;;;;;;;;;;;;11.61;79.06;97598.44;30001;983;1880;-60
2021/09/21 02:20:14;;;;;;;;;;;;;;;11.60;78.56;97601.44;30001;983;1884;-60
2021/09/21 02:20:45;;;;;;;;;;;;;;;11.59;78.49;97602.50;30001;983;1880;-61
2021/09/21 02:21:16;;;;;;;;;;;;;;;11.56;78.54;97597.66;30001;983;1884;-61
2021/09/21 02:21:47;;;;;;;;;;;;;;;11.53;78.65;97593.56;30001;983;1880;-60
2021/09/21 02:22:18;;;;;;;;;;;;;;;11.54;78.78;97597.09;30001;983;1884;-61
2021/09/21 02:22:49;;;;;;;;;;;;;;;11.53;78.74;97593.56;30001;982;1880;-61
2021/09/21 02:23:19;;;;;;;;;;;;;;;11.53;78.71;97593.56;30001;982;1863;-62
2021/09/21 02:23:51;;;;;;;;;;;;;;;11.52;78.59;97600.09;30001;982;1876;-61
2021/09/21 02:24:24;;;;;;;;;;;;;;;11.53;78.85;97598.19;30001;982;1885;-59
2021/09/21 02:24:56;;;;;;;;;;;;;;;11.53;79.54;97590.06;30001;982;1880;-60
2021/09/21 02:25:27;;;;;;;;;;;;;;;11.53;79.40;97603.62;30001;982;1885;-61
2021/09/21 02:25:58;;;;;;;;;;;;;;;11.52;79.51;97602.81;30001;982;1880;-61
2021/09/21 02:26:29;;;;;;;;;;;;;;;11.52;79.39;97596.56;30001;983;1884;-61
2021/09/21 02:27:00;;;;;;;;;;;;;;;11.50;79.85;97604.19;30001;983;1880;-61
2021/09/21 02:27:30;;;;;;;;;;;;;;;11.49;79.69;97603.38;30001;983;1862;-59
2021/09/21 02:28:01;;;;;;;;;;;;;;;11.50;79.45;97604.19;30001;983;1875;-60
2021/09/21 02:28:32;;;;;;;;;;;;;;;11.50;79.40;97601.47;30001;983;1884;-61
2021/09/21 02:29:03;;;;;;;;;;;;;;;11.49;79.06;97608.00;30001;983;1880;-61
2021/09/21 02:29:34;;;;;;;;;;;;;;;11.49;78.73;97602.56;30001;983;1884;-60
2021/09/21 02:30:05;;;;;;;;;;;;;;;11.46;79.08;97605.84;30001;959;1904;-60
2021/09/21 02:30:36;;;;;;;;;;;;;;;11.46;78.87;97603.13;30001;982;1885;-61
2021/09/21 02:31:07;;;;;;;;;;;;;;;11.45;79.12;97598.78;30001;982;1880;-60
2021/09/21 02:31:38;;;;;;;;;;;;;;;11.46;79.19;97608.56;30001;982;1869;-61
2021/09/21 02:32:08;;;;;;;;;;;;;;;11.46;79.11;97609.38;30001;982;1880;-62
2021/09/21 02:32:41;;;;;;;;;;;;;;;11.46;79.18;97608.56;30001;982;1863;-61
2021/09/21 02:33:12;;;;;;;;;;;;;;;11.46;78.98;97603.94;30001;982;1876;-60
2021/09/21 02:33:43;;;;;;;;;;;;;;;11.47;78.83;97607.47;30001;957;1910;-61
2021/09/21 02:34:14;;;;;;;;;;;;;;;11.48;79.02;97614.53;30001;983;1879;-60
2021/09/21 02:34:45;;;;;;;;;;;;;;;11.48;79.02;97611.81;30001;983;1884;-61
2021/09/21 02:35:16;;;;;;;;;;;;;;;11.48;78.83;97606.38;30001;983;1880;-60
2021/09/21 02:35:47;;;;;;;;;;;;;;;11.51;78.77;97611.25;30001;983;1884;-61
2021/09/21 02:36:18;;;;;;;;;;;;;;;11.50;78.96;97615.87;30001;983;1880;-63
2021/09/21 02:36:49;;;;;;;;;;;;;;;11.50;78.61;97615.06;30001;983;1885;-61
2021/09/21 02:37:23;;;;;;;;;;;;;;;11.47;78.84;97611.00;30001;987;1880;-60
2021/09/21 02:37:54;;;;;;;;;;;;;;;11.48;78.86;97612.62;30001;982;1863;-61
2021/09/21 02:38:25;;;;;;;;;;;;;;;11.48;78.93;97606.38;30001;982;1876;-61
2021/09/21 02:38:56;;;;;;;;;;;;;;;11.50;79.14;97604.19;30001;982;1885;-60
2021/09/21 02:39:27;;;;;;;;;;;;;;;11.47;79.19;97611.00;30001;982;1880;-60
2021/09/21 02:39:58;;;;;;;;;;;;;;;11.49;79.22;97600.66;30001;971;1874;-60
2021/09/21 02:40:30;;;;;;;;;;;;;;;11.49;79.13;97602.56;30001;983;1875;-61
2021/09/21 02:41:01;;;;;;;;;;;;;;;11.50;78.79;97605.00;30001;983;1884;-60
2021/09/21 02:41:32;;;;;;;;;;;;;;;11.51;78.87;97603.09;30001;983;1879;-60
2021/09/21 02:42:03;;;;;;;;;;;;;;;11.51;78.91;97606.63;30001;983;1884;-61
2021/09/21 02:42:34;;;;;;;;;;;;;;;11.51;78.45;97601.19;30001;983;1858;-59
2021/09/21 02:43:05;;;;;;;;;;;;;;;11.51;78.46;97603.09;30001;983;1880;-61
2021/09/21 02:43:36;;;;;;;;;;;;;;;11.51;79.11;97605.81;30001;983;1880;-61
2021/09/21 02:44:07;;;;;;;;;;;;;;;11.51;78.77;97605.81;30002;986;1884;-61
2021/09/21 02:44:37;;;;;;;;;;;;;;;11.51;78.86;97605.81;30002;983;1880;-62
2021/09/21 02:45:09;;;;;;;;;;;;;;;11.51;78.81;97605.81;30002;983;1884;-60
2021/09/21 02:45:40;;;;;;;;;;;;;;;11.50;78.62;97605.00;30002;982;1880;-60
2021/09/21 02:46:11;;;;;;;;;;;;;;;11.51;78.93;97608.53;30002;982;1885;-60
2021/09/21 02:46:41;;;;;;;;;;;;;;;11.50;78.81;97605.00;30002;982;1880;-60
2021/09/21 02:47:12;;;;;;;;;;;;;;;11.51;78.81;97613.97;30002;969;1828;-61
2021/09/21 02:47:46;;;;;;;;;;;;;;;11.52;78.65;97612.88;30002;982;1876;-60
2021/09/21 02:48:17;;;;;;;;;;;;;;;11.52;78.40;97610.16;30002;983;1884;-60
2021/09/21 02:48:48;;;;;;;;;;;;;;;11.53;78.77;97609.06;30002;983;1880;-60
2021/09/21 02:49:22;;;;;;;;;;;;;;;11.53;78.60;97614.50;30002;983;1884;-60
2021/09/21 02:49:53;;;;;;;;;;;;;;;11.53;78.02;97609.88;30002;983;1880;-61
2021/09/21 02:50:24;;;;;;;;;;;;;;;11.54;78.42;97618.84;30002;983;1862;-61
2021/09/21 02:50:54;;;;;;;;;;;;;;;11.55;78.27;97617.75;30002;983;1875;-59
2021/09/21 02:51:25;;;;;;;;;;;;;;;11.54;78.04;97614.22;30002;983;1862;-61
2021/09/21 02:51:56;;;;;;;;;;;;;;;11.56;78.21;97613.94;30002;983;1876;-59
2021/09/21 02:52:27;;;;;;;;;;;;;;;11.55;78.33;97615.03;30002;983;1884;-60
2021/09/21 02:52:58;;;;;;;;;;;;;;;11.55;78.04;97618.56;30002;982;1880;-59
2021/09/21 02:53:29;;;;;;;;;;;;;;;11.55;77.90;97615.84;30002;982;1884;-60
2021/09/21 02:54:00;;;;;;;;;;;;;;;11.56;78.01;97614.75;30002;982;1880;-58